createdAt,value
2023-01-02T00:01:00.281Z,12.87
2023-01-02T00:04:04.088Z,10.00
2023-01-02T00:07:07.832Z,8.07
2023-01-02T00:10:11.670Z,6.83
2023-01-02T00:13:15.867Z,6.73
2023-01-02T00:16:20.969Z,6.30
2023-01-02T00:19:24.741Z,8.03
2023-01-02T00:22:28.610Z,7.83
2023-01-02T00:25:34.815Z,7.30
2023-01-02T00:28:39.876Z,8.57
2023-01-02T00:31:45.228Z,9.83
2023-01-02T00:34:48.964Z,8.07
2023-01-02T00:37:54.021Z,8.20
2023-01-02T00:40:57.611Z,8.47
2023-01-02T00:44:01.310Z,5.50
2023-01-02T00:47:06.532Z,4.80
2023-01-02T00:50:10.393Z,7.27
2023-01-02T00:53:14.053Z,4.80
2023-01-02T00:56:17.628Z,4.80
2023-01-02T00:59:21.314Z,6.23
2023-01-02T01:02:26.384Z,6.13
2023-01-02T01:05:30.907Z,8.83
2023-01-02T01:08:35.819Z,5.20
2023-01-02T01:11:39.460Z,7.53
2023-01-02T01:14:43.061Z,8.57
2023-01-02T01:17:48.142Z,5.53
2023-01-02T01:20:52.312Z,8.20
2023-01-02T01:23:57.062Z,7.23
2023-01-02T01:27:00.730Z,8.00
2023-01-02T01:30:04.965Z,7.27
2023-01-02T01:33:10.064Z,6.57
2023-01-02T01:36:17.132Z,5.03
2023-01-02T01:39:20.689Z,5.57
2023-01-02T01:42:24.341Z,5.10
2023-01-02T01:45:45.079Z,6.77
2023-01-02T01:48:59.109Z,8.50
2023-01-02T01:52:07.555Z,6.17
2023-01-02T01:55:18.295Z,6.20
2023-01-02T01:58:28.573Z,6.23
2023-01-02T02:01:33.481Z,7.53
2023-01-02T02:04:39.516Z,4.97
2023-01-02T02:07:53.700Z,6.93
2023-01-02T02:11:00.389Z,5.23
2023-01-02T02:14:04.058Z,11.00
2023-01-02T02:17:23.803Z,7.27
2023-01-02T02:20:51.252Z,7.47
2023-01-02T02:24:37.873Z,7.47
2023-01-02T02:28:08.427Z,7.70
2023-01-02T02:31:23.857Z,9.13
2023-01-02T02:34:35.963Z,8.80
2023-01-02T02:37:53.308Z,9.23
2023-01-02T02:41:07.173Z,9.53
2023-01-02T02:44:30.284Z,6.33
2023-01-02T02:47:44.358Z,9.30
2023-01-02T02:50:57.962Z,10.20
2023-01-02T02:54:07.406Z,9.03
2023-01-02T02:57:14.207Z,11.57
2023-01-02T03:00:23.347Z,12.40
2023-01-02T03:03:28.296Z,13.57
2023-01-02T03:06:51.637Z,12.83
2023-01-02T03:10:10.882Z,7.60
2023-01-02T03:13:26.867Z,9.63
2023-01-02T03:16:40.642Z,10.17
2023-01-02T03:19:53.781Z,9.10
2023-01-02T03:23:05.757Z,9.90
2023-01-02T03:26:09.711Z,10.63
2023-01-02T03:29:19.738Z,8.67
2023-01-02T03:32:28.912Z,8.73
2023-01-02T03:35:39.069Z,12.80
2023-01-02T03:38:49.090Z,10.10
2023-01-02T03:41:59.016Z,7.93
2023-01-02T03:45:09.530Z,9.40
2023-01-02T03:48:26.416Z,9.70
2023-01-02T03:51:31.613Z,7.63
2023-01-02T03:54:35.543Z,8.83
2023-01-02T03:57:59.057Z,11.80
2023-01-02T04:01:13.930Z,8.13
2023-01-02T04:04:30.706Z,9.60
2023-01-02T04:07:47.023Z,10.80
2023-01-02T04:10:58.697Z,9.33
2023-01-02T04:14:11.626Z,9.33
2023-01-02T04:17:19.382Z,10.83
2023-01-02T04:20:30.231Z,6.80
2023-01-02T04:23:42.371Z,9.43
2023-01-02T04:26:51.388Z,11.90
2023-01-02T04:29:56.804Z,8.57
2023-01-02T04:33:07.833Z,7.00
2023-01-02T04:36:14.074Z,13.70
2023-01-02T04:39:23.688Z,11.10
2023-01-02T04:42:27.311Z,9.53
2023-01-02T04:45:30.952Z,12.30
2023-01-02T04:48:34.655Z,10.70
2023-01-02T04:51:38.265Z,8.80
2023-01-02T04:54:43.249Z,15.40
2023-01-02T04:57:46.990Z,10.60
2023-01-02T05:00:50.751Z,9.10
2023-01-02T05:03:54.377Z,11.20
2023-01-02T05:06:58.094Z,15.70
2023-01-02T05:10:03.060Z,10.83
2023-01-02T05:13:06.824Z,9.83
2023-01-02T05:16:11.587Z,11.33
2023-01-02T05:19:15.667Z,9.33
2023-01-02T05:22:37.126Z,11.73
2023-01-02T05:25:42.111Z,15.37
2023-01-02T05:29:02.062Z,13.13
2023-01-02T05:32:06.271Z,10.43
2023-01-02T05:35:10.954Z,12.63
2023-01-02T05:38:14.690Z,12.77
2023-01-02T05:41:21.282Z,9.67
2023-01-02T05:44:24.929Z,9.00
2023-01-02T05:47:28.686Z,13.23
2023-01-02T05:50:32.753Z,10.07
2023-01-02T05:53:37.170Z,12.20
2023-01-02T05:56:42.192Z,11.17
2023-01-02T05:59:45.747Z,13.53
2023-01-02T06:02:49.472Z,20.30
2023-01-02T06:05:53.146Z,12.77
2023-01-02T06:08:57.018Z,10.43
2023-01-02T06:12:02.029Z,17.13
2023-01-02T06:15:06.500Z,16.27
2023-01-02T06:18:10.106Z,8.60
2023-01-02T06:21:16.556Z,9.97
2023-01-02T06:24:20.131Z,17.37
2023-01-02T06:27:25.118Z,11.13
2023-01-02T06:30:28.726Z,7.33
2023-01-02T06:33:33.341Z,11.97
2023-01-02T06:36:36.992Z,10.80
2023-01-02T06:39:40.614Z,12.17
2023-01-02T06:42:46.431Z,12.73
2023-01-02T06:45:50.549Z,15.17
2023-01-02T06:48:54.323Z,12.60
2023-01-02T06:51:57.909Z,15.90
2023-01-02T06:55:01.703Z,12.80
2023-01-02T06:58:12.256Z,13.40
2023-01-02T07:01:21.182Z,9.40
2023-01-02T07:04:24.991Z,11.30
2023-01-02T07:07:29.565Z,11.37
2023-01-02T07:10:33.551Z,9.90
2023-01-02T07:13:39.312Z,11.73
2023-01-02T07:16:43.207Z,11.20
2023-01-02T07:19:53.100Z,8.37
2023-01-02T07:22:57.574Z,11.23
2023-01-02T07:26:02.993Z,9.83
2023-01-02T07:29:08.020Z,13.03
2023-01-02T07:32:11.770Z,9.50
2023-01-02T07:35:15.541Z,9.87
2023-01-02T07:38:21.027Z,6.33
2023-01-02T07:41:27.346Z,9.77
2023-01-02T07:44:32.466Z,9.97
2023-01-02T07:47:37.540Z,8.67
2023-01-02T07:50:41.140Z,9.97
2023-01-02T07:53:44.873Z,8.60
2023-01-02T07:56:48.476Z,7.67
2023-01-02T07:59:53.608Z,7.90
2023-01-02T08:02:57.443Z,9.20
2023-01-02T08:06:05.841Z,13.00
2023-01-02T08:09:09.875Z,10.80
2023-01-02T08:12:13.827Z,7.47
2023-01-02T08:15:19.089Z,8.30
2023-01-02T08:18:22.711Z,8.20
2023-01-02T08:21:27.892Z,8.53
2023-01-02T08:24:33.576Z,10.43
2023-01-02T08:27:37.560Z,6.57
2023-01-02T08:30:43.138Z,9.33
2023-01-02T08:33:47.864Z,6.37
2023-01-02T08:36:52.621Z,7.57
2023-01-02T08:39:56.244Z,7.30
2023-01-02T08:43:00.621Z,10.70
2023-01-02T08:46:08.072Z,11.97
2023-01-02T08:49:12.463Z,6.17
2023-01-02T08:52:16.213Z,8.37
2023-01-02T08:55:19.899Z,11.23
2023-01-02T08:58:23.564Z,8.57
2023-01-02T09:01:31.236Z,8.63
2023-01-02T09:04:34.970Z,6.93
2023-01-02T09:07:38.689Z,8.90
2023-01-02T09:10:42.676Z,9.40
2023-01-02T09:13:47.094Z,7.67
2023-01-02T09:16:53.651Z,10.00
2023-01-02T09:19:57.368Z,5.43
2023-01-02T09:23:00.999Z,7.07
2023-01-02T09:26:07.937Z,6.77
2023-01-02T09:29:13.210Z,8.00
2023-01-02T09:32:19.709Z,5.23
2023-01-02T09:35:23.386Z,7.40
2023-01-02T09:38:27.009Z,6.50
2023-01-02T09:41:38.699Z,6.70
2023-01-02T09:44:47.924Z,8.53
2023-01-02T09:47:57.518Z,5.63
2023-01-02T09:51:07.589Z,6.77
2023-01-02T09:54:23.721Z,5.37
2023-01-02T09:57:46.146Z,5.17
2023-01-02T10:00:52.595Z,6.27
2023-01-02T10:04:15.425Z,5.57
2023-01-02T10:07:30.120Z,7.60
2023-01-02T10:10:41.709Z,3.73
2023-01-02T10:17:21.135Z,6.83
2023-01-02T10:20:34.745Z,3.43
2023-01-02T10:23:46.338Z,4.93
2023-01-02T10:26:54.695Z,3.70
2023-01-02T10:30:15.922Z,7.17
2023-01-02T10:33:27.474Z,4.03
2023-01-02T10:36:39.314Z,2.30
2023-01-02T10:39:45.018Z,1.67
2023-01-02T10:42:59.431Z,1.37
2023-01-02T10:46:06.041Z,1.70
2023-01-02T10:49:13.442Z,1.93
2023-01-02T10:52:27.794Z,1.83
2023-01-02T10:55:35.355Z,1.87
2023-01-02T10:58:49.099Z,1.20
2023-01-02T11:01:55.937Z,1.13
2023-01-02T11:05:04.931Z,0.93
2023-01-02T11:08:16.714Z,0.97
2023-01-02T11:11:22.080Z,0.73
2023-01-02T11:14:32.352Z,1.20
2023-01-02T11:17:44.831Z,1.00
2023-01-02T11:20:54.604Z,1.43
2023-01-02T11:24:07.849Z,1.30
2023-01-02T11:27:11.558Z,0.90
2023-01-02T11:30:36.451Z,1.17
2023-01-02T11:33:40.282Z,1.10
2023-01-02T11:36:45.911Z,1.07
2023-01-02T11:40:02.584Z,2.13
2023-01-02T11:43:30.888Z,0.90
2023-01-02T11:46:39.303Z,1.23
2023-01-02T11:49:49.698Z,1.10
2023-01-02T11:53:01.895Z,1.20
2023-01-02T11:56:16.879Z,0.90
2023-01-02T11:59:26.053Z,1.10
2023-01-02T12:02:40.821Z,0.90
2023-01-02T12:06:01.168Z,1.00
2023-01-02T12:09:12.369Z,1.10
2023-01-02T12:12:49.407Z,0.77
2023-01-02T12:16:19.925Z,2.23
2023-01-02T12:19:43.662Z,0.77
2023-01-02T12:23:45.126Z,1.10
2023-01-02T12:27:00.136Z,1.73
2023-01-02T12:30:13.117Z,1.27
2023-01-02T12:33:46.968Z,1.87
2023-01-02T12:37:11.278Z,2.07
2023-01-02T12:40:40.714Z,2.33
2023-01-02T12:44:17.169Z,2.50
2023-01-02T12:47:52.731Z,1.93
2023-01-02T12:51:14.262Z,1.67
2023-01-02T12:54:51.199Z,1.33
2023-01-02T12:58:03.985Z,1.90
2023-01-02T13:01:22.502Z,1.30
2023-01-02T13:04:33.953Z,3.27
2023-01-02T13:07:46.856Z,3.03
2023-01-02T13:10:52.405Z,1.53
2023-01-02T13:13:58.139Z,1.07
2023-01-02T13:17:26.432Z,1.40
2023-01-02T13:20:46.761Z,1.87
2023-01-02T13:23:52.749Z,1.87
2023-01-02T13:27:00.164Z,2.77
2023-01-02T13:30:04.311Z,2.70
2023-01-02T13:33:29.187Z,3.10
2023-01-02T13:36:42.171Z,1.50
2023-01-02T13:39:51.407Z,1.70
2023-01-02T13:43:03.614Z,3.20
2023-01-02T13:46:07.608Z,2.13
2023-01-02T13:49:20.421Z,1.30
2023-01-02T13:52:25.745Z,1.03
2023-01-02T13:55:34.044Z,1.37
2023-01-02T13:58:53.687Z,2.13
2023-01-02T14:02:20.925Z,1.67
2023-01-02T14:06:01.066Z,1.93
2023-01-02T14:09:15.376Z,1.97
2023-01-02T14:12:20.064Z,2.90
2023-01-02T14:15:27.732Z,2.93
2023-01-02T14:18:31.810Z,1.77
2023-01-02T14:21:40.486Z,1.87
2023-01-02T14:24:49.320Z,3.00
2023-01-02T14:27:57.837Z,1.87
2023-01-02T14:31:21.506Z,1.93
2023-01-02T14:34:28.063Z,1.83
2023-01-02T14:37:40.275Z,2.13
2023-01-02T14:40:47.590Z,4.03
2023-01-02T14:43:52.075Z,4.00
2023-01-02T14:46:58.295Z,2.43
2023-01-02T14:50:06.936Z,2.37
2023-01-02T14:53:20.644Z,1.93
2023-01-02T14:56:35.095Z,1.43
2023-01-02T14:59:43.848Z,1.93
2023-01-02T15:02:52.168Z,3.93
2023-01-02T15:06:00.856Z,1.83
2023-01-02T15:09:14.021Z,5.00
2023-01-02T15:12:44.149Z,2.67
2023-01-02T15:15:53.562Z,4.33
2023-01-02T15:19:01.149Z,4.50
2023-01-02T15:22:11.995Z,3.07
2023-01-02T15:25:31.606Z,2.20
2023-01-02T15:28:36.675Z,2.37
2023-01-02T15:31:42.309Z,4.43
2023-01-02T15:34:46.043Z,2.70
2023-01-02T15:37:52.021Z,4.87
2023-01-02T15:40:58.170Z,4.27
2023-01-02T15:44:20.594Z,3.63
2023-01-02T15:47:28.182Z,4.63
2023-01-02T15:50:34.119Z,6.40
2023-01-02T15:53:42.873Z,8.00
2023-01-02T15:56:46.725Z,6.67
2023-01-02T15:59:51.829Z,7.40
2023-01-02T16:02:55.587Z,6.30
2023-01-02T16:06:07.198Z,10.13
2023-01-02T16:09:24.662Z,8.63
2023-01-02T16:12:28.324Z,8.17
2023-01-02T16:15:36.984Z,7.03
2023-01-02T16:18:45.157Z,7.60
2023-01-02T16:21:52.590Z,6.90
2023-01-02T16:25:06.229Z,11.87
2023-01-02T16:28:35.225Z,9.27
2023-01-02T16:31:56.623Z,13.30
2023-01-02T16:35:03.843Z,6.80
2023-01-02T16:38:22.233Z,7.83
2023-01-02T16:42:16.236Z,3.70
2023-01-02T16:45:20.295Z,6.27
2023-01-02T16:48:29.973Z,8.80
2023-01-02T16:51:34.160Z,6.07
2023-01-02T16:54:38.088Z,8.73
2023-01-02T16:57:41.729Z,6.40
2023-01-02T17:00:45.586Z,9.00
2023-01-02T17:03:50.636Z,7.77
2023-01-02T17:06:55.193Z,8.40
2023-01-02T17:09:58.813Z,8.40
2023-01-02T17:13:02.676Z,9.97
2023-01-02T17:16:07.919Z,7.30
2023-01-02T17:19:12.973Z,9.70
2023-01-02T17:22:16.707Z,8.03
2023-01-02T17:25:20.449Z,9.03
2023-01-02T17:28:24.185Z,7.00
2023-01-02T17:31:28.509Z,9.70
2023-01-02T17:34:34.607Z,10.13
2023-01-02T17:37:39.314Z,9.63
2023-01-02T17:40:43.037Z,7.03
2023-01-02T17:44:01.826Z,7.03
2023-01-02T17:50:33.603Z,7.00
2023-01-02T17:53:38.431Z,7.77
2023-01-02T17:56:42.052Z,9.67
2023-01-02T17:59:45.919Z,9.77
2023-01-02T18:02:49.677Z,9.87
2023-01-02T18:05:54.944Z,11.77
2023-01-02T18:08:58.644Z,6.73
2023-01-02T18:12:02.382Z,10.97
2023-01-02T18:15:15.775Z,12.93
2023-01-02T18:18:24.093Z,14.80
2023-01-02T18:21:35.672Z,16.50
2023-01-02T18:24:39.344Z,11.27
2023-01-02T18:27:42.957Z,10.40
2023-01-02T18:30:46.789Z,12.50
2023-01-02T18:33:51.865Z,7.67
2023-01-02T18:36:58.929Z,5.50
2023-01-02T18:40:02.622Z,6.13
2023-01-02T18:43:24.434Z,4.60
2023-01-02T18:47:03.438Z,3.47
2023-01-02T18:50:24.584Z,2.90
2023-01-02T18:53:38.311Z,2.60
2023-01-02T18:56:42.433Z,2.60
2023-01-02T18:59:49.073Z,3.77
2023-01-02T19:02:59.828Z,4.20
2023-01-02T19:06:03.558Z,4.23
2023-01-02T19:09:18.376Z,3.87
2023-01-02T19:12:46.404Z,4.03
2023-01-02T19:15:53.823Z,4.70
2023-01-02T19:18:57.589Z,4.33
2023-01-02T19:22:02.446Z,3.43
2023-01-02T19:25:20.114Z,4.23
2023-01-02T19:28:29.230Z,2.47
2023-01-02T19:31:43.186Z,6.03
2023-01-02T19:34:50.358Z,4.70
2023-01-02T19:37:54.189Z,3.17
2023-01-02T19:41:00.970Z,3.93
2023-01-02T19:44:06.561Z,5.10
2023-01-02T19:47:10.277Z,5.30
2023-01-02T19:50:18.494Z,3.37
2023-01-02T19:53:22.185Z,8.57
2023-01-02T19:56:27.468Z,5.03
2023-01-02T19:59:31.213Z,4.03
2023-01-02T20:02:35.185Z,5.13
2023-01-02T20:05:39.754Z,5.27
2023-01-02T20:08:44.496Z,6.27
2023-01-02T20:12:07.870Z,9.00
2023-01-02T20:15:31.758Z,4.83
2023-01-02T20:18:35.514Z,6.60
2023-01-02T20:21:40.996Z,8.33
2023-01-02T20:24:44.641Z,8.63
2023-01-02T20:27:49.794Z,7.53
2023-01-02T20:30:53.602Z,9.57
2023-01-02T20:33:57.423Z,7.87
2023-01-02T20:37:01.125Z,7.60
2023-01-02T20:40:05.268Z,9.00
2023-01-02T20:43:10.304Z,5.93
2023-01-02T20:46:14.101Z,10.43
2023-01-02T20:49:17.877Z,7.70
2023-01-02T20:52:22.682Z,7.17
2023-01-02T20:55:26.737Z,6.77
2023-01-02T20:58:31.869Z,12.57
2023-01-02T21:01:35.678Z,9.07
2023-01-02T21:04:39.587Z,10.27
2023-01-02T21:07:43.343Z,8.17
2023-01-02T21:10:47.190Z,9.47
2023-01-02T21:13:52.960Z,10.60
2023-01-02T21:16:58.712Z,7.50
2023-01-02T21:20:02.316Z,13.00
2023-01-02T21:23:06.735Z,6.73
2023-01-02T21:26:14.441Z,10.23
2023-01-02T21:29:19.738Z,12.77
2023-01-02T21:32:23.543Z,8.10
2023-01-02T21:35:27.840Z,11.60
2023-01-02T21:38:31.972Z,7.53
2023-01-02T21:41:58.068Z,7.07
2023-01-02T21:45:03.104Z,6.37
2023-01-02T21:48:08.593Z,8.33
2023-01-02T21:51:13.833Z,6.13
2023-01-02T21:54:17.507Z,9.57
2023-01-02T21:57:38.660Z,8.50
2023-01-02T22:00:46.239Z,12.80
2023-01-02T22:03:50.029Z,5.10
2023-01-02T22:10:18.367Z,12.00
2023-01-02T22:13:22.180Z,8.87
2023-01-02T22:16:27.400Z,10.17
2023-01-02T22:19:32.061Z,11.43
2023-01-02T22:22:35.738Z,10.93
2023-01-02T22:25:39.472Z,6.50
2023-01-02T22:28:43.555Z,13.10
2023-01-02T22:31:49.843Z,4.03
2023-01-02T22:34:54.407Z,12.77
2023-01-02T22:37:59.618Z,8.70
2023-01-02T22:41:03.725Z,6.33
2023-01-02T22:44:12.690Z,7.90
2023-01-02T22:47:25.308Z,11.73
2023-01-02T22:50:38.287Z,10.00
2023-01-02T22:53:42.378Z,10.17
2023-01-02T22:56:46.136Z,9.03
2023-01-02T22:59:49.803Z,8.90
2023-01-02T23:02:54.996Z,12.63
2023-01-02T23:05:59.372Z,8.43
2023-01-02T23:09:03.076Z,8.30
2023-01-02T23:12:07.394Z,5.63
2023-01-02T23:15:14.577Z,8.43
2023-01-02T23:18:36.354Z,10.70
2023-01-02T23:21:42.165Z,13.40
2023-01-02T23:24:45.894Z,11.50
2023-01-02T23:27:49.998Z,10.93
2023-01-02T23:30:53.667Z,7.63
2023-01-02T23:33:58.739Z,8.17
2023-01-02T23:37:02.792Z,8.07
2023-01-02T23:40:08.093Z,4.77
2023-01-02T23:43:11.744Z,7.03
2023-01-02T23:46:15.538Z,10.10
2023-01-02T23:49:20.915Z,9.30
2023-01-02T23:52:24.700Z,8.80
2023-01-02T23:55:30.699Z,8.97
2023-01-02T23:58:34.389Z,9.30
